Time;durP1;ratioP1;P1;durP2;ratioP2;P2;SDS_P1;SDS_P2;PMS_P1;PMS_P2;Temp;Humidity;BMP_temperature;BMP_pressure;BME280_temperature;BME280_humidity;BME280_pressure;Samples;Min_cycle;Max_cycle;Signal;HPM_P1;HPM_P2
2023/02/02 00:00:28;;;;;;;22.45;20.67;;;;;;;;;;5097223;28;20225;-82
2023/02/02 00:02:56;;;;;;;26.35;21.42;;;;;;;;;;5096540;28;20266;-82
2023/02/02 00:05:23;;;;;;;23.52;21.48;;;;;;;;;;5097562;28;20257;-81
2023/02/02 00:07:51;;;;;;;22.63;20.65;;;;;;;;;;5097539;28;20547;-82
2023/02/02 00:10:18;;;;;;;22.80;20.90;;;;;;;;;;5097438;28;20202;-82
2023/02/02 00:12:45;;;;;;;22.15;20.20;;;;;;;;;;5096526;28;20267;-82
2023/02/02 00:15:12;;;;;;;22.10;20.10;;;;;;;;;;5096737;28;20221;-82
2023/02/02 00:17:39;;;;;;;21.88;20.02;;;;;;;;;;5096921;28;20216;-82
2023/02/02 00:20:08;;;;;;;24.10;19.98;;;;;;;;;;5097263;28;20229;-82
2023/02/02 00:22:35;;;;;;;22.50;20.35;;;;;;;;;;5096813;28;20223;-82
2023/02/02 00:25:02;;;;;;;22.65;20.73;;;;;;;;;;5096643;28;20286;-82
2023/02/02 00:27:29;;;;;;;22.50;20.52;;;;;;;;;;5097067;28;20616;-82
2023/02/02 00:29:56;;;;;;;20.67;19.05;;;;;;;;;;5097199;28;20206;-82
2023/02/02 00:32:23;;;;;;;22.65;20.25;;;;;;;;;;5096841;28;20209;-82
2023/02/02 00:34:50;;;;;;;22.25;20.08;;;;;;;;;;5096828;28;20279;-82
2023/02/02 00:37:18;;;;;;;23.27;21.10;;;;;;;;;;5098497;28;20193;-82
2023/02/02 00:39:45;;;;;;;23.70;21.48;;;;;;;;;;5101804;28;20206;-82
2023/02/02 00:42:12;;;;;;;22.90;20.92;;;;;;;;;;5101150;28;20263;-82
2023/02/02 00:47:24;;;;;;;22.83;21.00;;;;;;;;;;5100329;28;20263;-82
2023/02/02 00:49:51;;;;;;;23.20;21.23;;;;;;;;;;5100947;28;20204;-82
2023/02/02 00:52:19;;;;;;;24.17;21.30;;;;;;;;;;5100405;28;20259;-82
2023/02/02 00:54:46;;;;;;;21.50;19.75;;;;;;;;;;5100541;28;20225;-82
2023/02/02 00:57:14;;;;;;;21.92;20.23;;;;;;;;;;5100425;28;20210;-82
2023/02/02 00:59:41;;;;;;;21.17;19.42;;;;;;;;;;5100777;28;20255;-82
2023/02/02 01:02:08;;;;;;;22.25;19.90;;;;;;;;;;5099975;28;20230;-82
2023/02/02 01:04:35;;;;;;;22.33;20.50;;;;;;;;;;5100804;28;20214;-83
2023/02/02 01:07:02;;;;;;;23.00;21.08;;;;;;;;;;5099917;28;20244;-82
2023/02/02 01:09:30;;;;;;;21.80;20.02;;;;;;;;;;5100414;28;20259;-83
2023/02/02 01:11:57;;;;;;;25.05;20.58;;;;;;;;;;5099814;28;20683;-82
2023/02/02 01:14:24;;;;;;;22.08;19.88;;;;;;;;;;5100775;28;20210;-82
2023/02/02 01:16:51;;;;;;;22.02;20.08;;;;;;;;;;5100440;28;20209;-82
2023/02/02 01:19:18;;;;;;;21.33;19.63;;;;;;;;;;5099852;28;20624;-82
2023/02/02 01:21:45;;;;;;;22.65;20.55;;;;;;;;;;5099275;28;20748;-81
2023/02/02 01:24:12;;;;;;;21.55;19.63;;;;;;;;;;5100378;28;20206;-82
2023/02/02 01:26:40;;;;;;;21.45;19.50;;;;;;;;;;5100766;28;20256;-82
2023/02/02 01:29:08;;;;;;;22.20;20.00;;;;;;;;;;5100779;28;20205;-82
2023/02/02 01:31:35;;;;;;;21.95;19.90;;;;;;;;;;5100282;28;20258;-82
2023/02/02 01:34:02;;;;;;;20.50;18.70;;;;;;;;;;5100663;28;20202;-82
2023/02/02 01:36:29;;;;;;;33.67;22.02;;;;;;;;;;5099363;28;20691;-82
2023/02/02 01:38:56;;;;;;;22.10;20.15;;;;;;;;;;5100511;28;20206;-82
2023/02/02 01:41:24;;;;;;;21.45;19.42;;;;;;;;;;5099201;28;20267;-82
2023/02/02 01:43:54;;;;;;;21.17;19.60;;;;;;;;;;5100256;28;20259;-82
2023/02/02 01:46:22;;;;;;;23.83;20.65;;;;;;;;;;5099902;28;20229;-81
2023/02/02 01:48:52;;;;;;;22.65;20.48;;;;;;;;;;5099919;28;20201;-82
2023/02/02 01:51:23;;;;;;;31.80;20.35;;;;;;;;;;5099621;28;20254;-82
2023/02/02 01:53:51;;;;;;;21.58;19.80;;;;;;;;;;5100332;28;20193;-82
2023/02/02 01:56:20;;;;;;;21.13;19.63;;;;;;;;;;5098952;28;20225;-82
2023/02/02 01:58:47;;;;;;;21.03;19.50;;;;;;;;;;5100052;28;20281;-82
2023/02/02 02:01:16;;;;;;;21.20;19.73;;;;;;;;;;5099979;28;20506;-81
2023/02/02 02:03:44;;;;;;;21.95;19.75;;;;;;;;;;5099735;28;20266;-82
2023/02/02 02:06:14;;;;;;;22.55;20.35;;;;;;;;;;5099376;28;20703;-82
2023/02/02 02:08:42;;;;;;;20.40;18.95;;;;;;;;;;5099934;28;20206;-82
2023/02/02 02:11:09;;;;;;;21.65;19.90;;;;;;;;;;5099781;28;20239;-82
2023/02/02 02:16:26;;;;;;;22.13;20.10;;;;;;;;;;5098344;28;20650;-82
2023/02/02 02:18:58;;;;;;;20.85;18.92;;;;;;;;;;5099965;28;20238;-82
2023/02/02 02:27:53;;;;;;;21.48;19.25;;;;;;;;;;5099738;28;20260;-81
2023/02/02 02:30:28;;;;;;;21.75;19.48;;;;;;;;;;5098982;28;20186;-82
2023/02/02 02:32:59;;;;;;;21.38;19.40;;;;;;;;;;5098737;28;20193;-82
2023/02/02 02:35:32;;;;;;;20.92;19.27;;;;;;;;;;5098609;28;20222;-82
2023/02/02 02:38:01;;;;;;;21.20;19.35;;;;;;;;;;5099373;28;20243;-82
2023/02/02 02:40:31;;;;;;;22.15;19.50;;;;;;;;;;5098835;28;20286;-82
2023/02/02 02:42:59;;;;;;;21.45;19.58;;;;;;;;;;5097797;28;20206;-82
2023/02/02 02:45:28;;;;;;;20.00;18.60;;;;;;;;;;5098787;28;20270;-83
2023/02/02 02:47:56;;;;;;;20.25;18.75;;;;;;;;;;5099121;28;20747;-82
2023/02/02 02:50:23;;;;;;;21.15;19.30;;;;;;;;;;5099042;28;20255;-82
2023/02/02 02:53:01;;;;;;;20.55;18.55;;;;;;;;;;5098367;28;20604;-82
2023/02/02 02:55:33;;;;;;;22.15;19.95;;;;;;;;;;5098125;28;20274;-82
2023/02/02 02:58:05;;;;;;;19.50;18.20;;;;;;;;;;5099063;28;20258;-81
2023/02/02 03:00:47;;;;;;;19.90;18.27;;;;;;;;;;5097989;28;20193;-83
2023/02/02 03:03:20;;;;;;;18.92;17.70;;;;;;;;;;5098192;28;20216;-82
2023/02/02 03:05:51;;;;;;;26.00;17.80;;;;;;;;;;5099580;28;20230;-82
2023/02/02 03:08:21;;;;;;;19.27;17.88;;;;;;;;;;5099290;28;20318;-82
2023/02/02 03:10:48;;;;;;;19.35;18.25;;;;;;;;;;5099510;28;20194;-82
2023/02/02 03:13:16;;;;;;;20.30;18.65;;;;;;;;;;5098599;28;20205;-82
2023/02/02 03:15:43;;;;;;;19.52;17.98;;;;;;;;;;5097771;28;20254;-82
2023/02/02 03:18:11;;;;;;;20.17;18.65;;;;;;;;;;5098715;28;20254;-82
2023/02/02 03:20:40;;;;;;;19.80;18.10;;;;;;;;;;5098740;28;20671;-82
2023/02/02 03:23:07;;;;;;;21.50;19.73;;;;;;;;;;5098042;28;20209;-82
2023/02/02 03:25:34;;;;;;;21.25;19.33;;;;;;;;;;5098331;28;20280;-82
2023/02/02 03:28:01;;;;;;;19.67;18.33;;;;;;;;;;5098994;28;20209;-82
2023/02/02 03:30:28;;;;;;;19.92;18.17;;;;;;;;;;5098747;28;20214;-82
2023/02/02 03:32:55;;;;;;;19.30;18.00;;;;;;;;;;5098375;28;20202;-82
2023/02/02 03:35:24;;;;;;;20.13;18.48;;;;;;;;;;5096898;28;20221;-82
2023/02/02 03:37:53;;;;;;;19.73;18.63;;;;;;;;;;5098004;28;20596;-83
2023/02/02 03:40:20;;;;;;;20.83;19.17;;;;;;;;;;5098453;28;20205;-82
2023/02/02 03:42:47;;;;;;;20.45;18.65;;;;;;;;;;5097509;28;20234;-82
2023/02/02 03:45:14;;;;;;;19.92;18.27;;;;;;;;;;5098275;28;20255;-82
2023/02/02 03:47:41;;;;;;;20.65;18.85;;;;;;;;;;5098277;28;20205;-82
2023/02/02 03:50:08;;;;;;;19.93;18.50;;;;;;;;;;5098520;28;20228;-82
2023/02/02 03:52:35;;;;;;;19.33;17.98;;;;;;;;;;5097294;28;20453;-82
2023/02/02 03:55:04;;;;;;;20.33;18.73;;;;;;;;;;5097413;28;20267;-82
2023/02/02 03:57:31;;;;;;;20.58;19.05;;;;;;;;;;5097796;28;20206;-82
2023/02/02 03:59:58;;;;;;;20.98;19.25;;;;;;;;;;5098241;28;20236;-82
2023/02/02 04:02:25;;;;;;;20.77;18.92;;;;;;;;;;5097004;28;20218;-82
2023/02/02 04:04:52;;;;;;;20.73;18.95;;;;;;;;;;5098320;28;20226;-82
2023/02/02 04:07:19;;;;;;;20.35;18.58;;;;;;;;;;5097259;28;20735;-82
2023/02/02 04:09:46;;;;;;;20.52;18.50;;;;;;;;;;5097651;28;20197;-82
2023/02/02 04:12:14;;;;;;;20.15;18.75;;;;;;;;;;5096330;28;20659;-82
2023/02/02 04:14:41;;;;;;;20.40;18.45;;;;;;;;;;5097711;28;20283;-82
2023/02/02 04:17:08;;;;;;;24.38;22.15;;;;;;;;;;5097865;28;20206;-82
2023/02/02 04:19:35;;;;;;;29.63;26.60;;;;;;;;;;5097882;28;20262;-82
2023/02/02 04:22:02;;;;;;;22.38;20.35;;;;;;;;;;5097235;28;20218;-82
2023/02/02 04:24:29;;;;;;;22.77;20.92;;;;;;;;;;5097205;28;20687;-83
2023/02/02 04:26:56;;;;;;;23.27;20.88;;;;;;;;;;5097917;28;20319;-82
2023/02/02 04:29:25;;;;;;;21.30;19.38;;;;;;;;;;5097511;28;20683;-82
2023/02/02 04:31:52;;;;;;;21.48;19.92;;;;;;;;;;5096609;28;20546;-82
2023/02/02 04:34:19;;;;;;;21.10;19.60;;;;;;;;;;5097091;28;20229;-82
2023/02/02 04:36:46;;;;;;;22.85;20.60;;;;;;;;;;5097313;28;20206;-82
2023/02/02 04:39:13;;;;;;;22.05;20.25;;;;;;;;;;5097193;28;20259;-83
2023/02/02 04:41:40;;;;;;;24.10;21.55;;;;;;;;;;5096744;28;20244;-82
2023/02/02 04:44:13;;;;;;;43.93;40.63;;;;;;;;;;5097596;28;20202;-82
2023/02/02 04:46:41;;;;;;;25.17;23.00;;;;;;;;;;5096436;28;20446;-83
2023/02/02 04:49:09;;;;;;;21.83;20.08;;;;;;;;;;5097188;28;20193;-82
2023/02/02 04:51:36;;;;;;;22.10;20.33;;;;;;;;;;5096612;28;20664;-83
2023/02/02 04:54:03;;;;;;;22.10;20.55;;;;;;;;;;5097194;28;20455;-82
2023/02/02 04:56:30;;;;;;;21.20;19.90;;;;;;;;;;5096045;28;20226;-82
2023/02/02 04:58:57;;;;;;;20.10;18.60;;;;;;;;;;5097022;28;20251;-83
2023/02/02 05:01:25;;;;;;;20.75;19.00;;;;;;;;;;5096701;28;20613;-83
2023/02/02 05:03:53;;;;;;;20.25;18.85;;;;;;;;;;5096997;28;20217;-83
2023/02/02 05:06:20;;;;;;;21.65;19.85;;;;;;;;;;5097640;28;20233;-82
2023/02/02 05:08:47;;;;;;;23.10;21.02;;;;;;;;;;5096623;28;20224;-83
2023/02/02 05:11:16;;;;;;;22.33;20.23;;;;;;;;;;5097016;28;20209;-83
2023/02/02 05:13:46;;;;;;;22.58;20.95;;;;;;;;;;5097473;28;20256;-82
2023/02/02 05:16:13;;;;;;;21.98;19.98;;;;;;;;;;5096416;28;20287;-82
2023/02/02 05:18:40;;;;;;;22.30;20.30;;;;;;;;;;5097511;28;20254;-82
2023/02/02 05:21:08;;;;;;;20.23;19.05;;;;;;;;;;5097365;28;20200;-83
2023/02/02 05:23:35;;;;;;;22.70;20.88;;;;;;;;;;5098518;28;20218;-83
2023/02/02 05:26:03;;;;;;;21.23;19.60;;;;;;;;;;5100771;28;20232;-83
2023/02/02 05:28:30;;;;;;;22.20;20.35;;;;;;;;;;5100921;28;20253;-83
2023/02/02 05:30:57;;;;;;;21.80;20.30;;;;;;;;;;5100665;28;20208;-82
2023/02/02 05:33:24;;;;;;;23.02;21.48;;;;;;;;;;5099822;28;20663;-82
2023/02/02 05:35:51;;;;;;;26.95;25.25;;;;;;;;;;5100108;28;20225;-83
2023/02/02 05:38:20;;;;;;;23.25;21.20;;;;;;;;;;5099996;28;20213;-83
2023/02/02 05:40:48;;;;;;;23.05;21.08;;;;;;;;;;5100836;28;20574;-83
2023/02/02 05:43:15;;;;;;;23.58;21.63;;;;;;;;;;5099562;28;20218;-83
2023/02/02 05:45:42;;;;;;;25.52;22.30;;;;;;;;;;5100541;28;20233;-82
2023/02/02 05:48:10;;;;;;;21.50;20.15;;;;;;;;;;5100219;28;20210;-82
2023/02/02 05:50:37;;;;;;;24.00;22.27;;;;;;;;;;5100606;28;20262;-82
2023/02/02 05:53:04;;;;;;;22.30;21.10;;;;;;;;;;5100304;28;20201;-82
2023/02/02 05:55:33;;;;;;;25.05;21.55;;;;;;;;;;5099380;28;20325;-82
2023/02/02 05:58:00;;;;;;;22.50;21.27;;;;;;;;;;5100173;28;20214;-83
2023/02/02 06:00:27;;;;;;;22.50;21.02;;;;;;;;;;5100395;28;20220;-82
2023/02/02 06:02:54;;;;;;;23.77;21.25;;;;;;;;;;5099668;28;20278;-83
2023/02/02 06:05:21;;;;;;;22.38;20.98;;;;;;;;;;5099757;28;20225;-82
2023/02/02 06:07:48;;;;;;;22.92;21.52;;;;;;;;;;5099953;28;20232;-83
2023/02/02 06:10:15;;;;;;;23.23;21.50;;;;;;;;;;5100009;28;20609;-82
2023/02/02 06:12:43;;;;;;;23.17;21.25;;;;;;;;;;5099827;28;20207;-83
2023/02/02 06:15:11;;;;;;;25.65;23.55;;;;;;;;;;5099757;28;20222;-83
2023/02/02 06:17:38;;;;;;;22.88;21.15;;;;;;;;;;5098967;28;20285;-83
2023/02/02 06:20:06;;;;;;;21.25;20.13;;;;;;;;;;5100104;28;20531;-83
2023/02/02 06:22:33;;;;;;;23.58;21.63;;;;;;;;;;5099482;28;20248;-83
2023/02/02 06:25:03;;;;;;;23.63;21.85;;;;;;;;;;5099709;28;20243;-83
2023/02/02 06:27:30;;;;;;;23.20;21.83;;;;;;;;;;5099332;28;20218;-82
2023/02/02 06:29:58;;;;;;;22.35;20.85;;;;;;;;;;5099406;28;20267;-82
2023/02/02 06:32:25;;;;;;;22.15;20.65;;;;;;;;;;5099113;28;20198;-83
2023/02/02 06:34:52;;;;;;;21.40;20.08;;;;;;;;;;5098014;28;20217;-82
2023/02/02 06:37:19;;;;;;;21.80;20.33;;;;;;;;;;5098858;28;20201;-82
2023/02/02 06:39:46;;;;;;;21.85;20.45;;;;;;;;;;5099528;28;20197;-82
2023/02/02 06:42:13;;;;;;;22.90;21.15;;;;;;;;;;5099375;28;20247;-83
2023/02/02 06:44:40;;;;;;;22.52;21.10;;;;;;;;;;5098585;28;20271;-83
2023/02/02 06:47:09;;;;;;;21.55;20.20;;;;;;;;;;5098818;28;20639;-82
2023/02/02 06:49:36;;;;;;;24.23;22.08;;;;;;;;;;5098924;28;20255;-83
2023/02/02 06:52:03;;;;;;;25.33;23.02;;;;;;;;;;5098710;28;20204;-83
2023/02/02 06:54:30;;;;;;;27.88;25.75;;;;;;;;;;5098813;28;20201;-83
2023/02/02 06:56:57;;;;;;;46.42;43.65;;;;;;;;;;5098267;28;20263;-83
2023/02/02 06:59:24;;;;;;;48.47;45.83;;;;;;;;;;5099030;28;20206;-83
2023/02/02 07:01:51;;;;;;;49.40;46.60;;;;;;;;;;5098042;28;20259;-82
2023/02/02 07:04:19;;;;;;;52.95;49.85;;;;;;;;;;5098511;28;20239;-82
2023/02/02 07:06:46;;;;;;;56.38;52.42;;;;;;;;;;5099465;28;20217;-83
2023/02/02 07:09:13;;;;;;;53.92;49.85;;;;;;;;;;5099301;28;20198;-83
2023/02/02 07:11:40;;;;;;;62.13;58.50;;;;;;;;;;5098693;28;20202;-84
2023/02/02 07:14:08;;;;;;;41.25;38.75;;;;;;;;;;5099654;28;20255;-84
2023/02/02 07:16:35;;;;;;;42.67;39.72;;;;;;;;;;5098472;28;20253;-83
2023/02/02 07:19:02;;;;;;;54.25;51.35;;;;;;;;;;5098341;28;20677;-82
2023/02/02 07:21:34;;;;;;;59.10;56.10;;;;;;;;;;5097718;28;20591;-83
2023/02/02 07:24:01;;;;;;;64.75;61.15;;;;;;;;;;5098895;28;20227;-83
2023/02/02 07:26:28;;;;;;;62.42;58.88;;;;;;;;;;5098325;28;20260;-82
2023/02/02 07:28:55;;;;;;;56.90;53.20;;;;;;;;;;5098079;28;20204;-83
2023/02/02 07:31:24;;;;;;;59.55;56.25;;;;;;;;;;5098094;28;20209;-84
2023/02/02 07:33:51;;;;;;;60.97;57.58;;;;;;;;;;5099174;28;20756;-84
2023/02/02 07:36:19;;;;;;;62.28;58.28;;;;;;;;;;5099607;28;20282;-83
2023/02/02 07:38:48;;;;;;;64.63;61.05;;;;;;;;;;5098804;28;20537;-83
2023/02/02 07:41:15;;;;;;;63.03;59.22;;;;;;;;;;5098685;28;20255;-84
2023/02/02 07:43:43;;;;;;;64.22;60.08;;;;;;;;;;5098401;28;20629;-83
2023/02/02 07:46:13;;;;;;;61.97;58.28;;;;;;;;;;5098355;28;20627;-84
2023/02/02 07:48:40;;;;;;;58.83;55.22;;;;;;;;;;5099089;28;20238;-84
2023/02/02 07:51:07;;;;;;;56.67;53.05;;;;;;;;;;5098333;28;20212;-84
2023/02/02 07:53:35;;;;;;;57.03;53.13;;;;;;;;;;5098388;28;20211;-83
2023/02/02 07:56:07;;;;;;;57.67;54.15;;;;;;;;;;5097976;28;20710;-83
2023/02/02 07:58:34;;;;;;;59.58;55.50;;;;;;;;;;5098314;28;20209;-84
2023/02/02 08:01:02;;;;;;;56.20;53.10;;;;;;;;;;5098657;28;20232;-83
2023/02/02 08:03:29;;;;;;;57.38;53.90;;;;;;;;;;5099126;28;20225;-84
2023/02/02 08:05:56;;;;;;;57.58;53.92;;;;;;;;;;5098048;28;20225;-83
2023/02/02 08:08:23;;;;;;;59.25;55.78;;;;;;;;;;5098521;28;20201;-83
2023/02/02 08:10:50;;;;;;;57.85;54.28;;;;;;;;;;5098410;28;20207;-83
2023/02/02 08:13:19;;;;;;;56.15;52.83;;;;;;;;;;5097347;28;20197;-84
2023/02/02 08:15:46;;;;;;;58.45;55.30;;;;;;;;;;5098193;28;20711;-83
2023/02/02 08:18:13;;;;;;;55.88;52.67;;;;;;;;;;5098392;28;20230;-83
2023/02/02 08:20:40;;;;;;;59.20;55.72;;;;;;;;;;5098386;28;20202;-83
2023/02/02 08:23:12;;;;;;;57.15;53.75;;;;;;;;;;5097201;28;20221;-84
2023/02/02 08:25:39;;;;;;;58.22;54.58;;;;;;;;;;5098173;28;20266;-82
2023/02/02 08:28:07;;;;;;;58.90;55.72;;;;;;;;;;5097552;28;20284;-83
2023/02/02 08:30:36;;;;;;;61.08;57.55;;;;;;;;;;5097332;28;20212;-83
2023/02/02 08:33:03;;;;;;;61.35;57.50;;;;;;;;;;5097563;28;20205;-83
2023/02/02 08:35:30;;;;;;;62.83;59.40;;;;;;;;;;5097833;28;20220;-82
2023/02/02 08:37:57;;;;;;;61.67;57.55;;;;;;;;;;5098419;28;20204;-83
2023/02/02 08:40:25;;;;;;;59.47;56.17;;;;;;;;;;5097963;28;20202;-83
2023/02/02 08:42:53;;;;;;;57.70;54.17;;;;;;;;;;5097146;28;20227;-83
2023/02/02 08:45:20;;;;;;;57.53;54.13;;;;;;;;;;5097476;28;20229;-83
2023/02/02 08:47:49;;;;;;;57.40;53.78;;;;;;;;;;5097949;28;20248;-83
2023/02/02 08:50:16;;;;;;;59.42;55.63;;;;;;;;;;5097663;28;20206;-83
2023/02/02 08:52:43;;;;;;;62.20;58.33;;;;;;;;;;5097374;28;20227;-83
2023/02/02 08:55:10;;;;;;;61.33;57.42;;;;;;;;;;5097692;28;20229;-83
2023/02/02 08:57:37;;;;;;;63.13;59.13;;;;;;;;;;5098532;28;20232;-83
2023/02/02 09:00:05;;;;;;;62.90;59.08;;;;;;;;;;5101717;28;20616;-83
2023/02/02 09:02:32;;;;;;;63.28;59.17;;;;;;;;;;5101215;28;20301;-83
2023/02/02 09:05:00;;;;;;;64.18;60.00;;;;;;;;;;5101307;28;20703;-83
2023/02/02 09:07:27;;;;;;;65.10;60.97;;;;;;;;;;5101605;28;20210;-83
2023/02/02 09:09:57;;;;;;;62.53;58.60;;;;;;;;;;5101281;28;20262;-83
2023/02/02 09:12:24;;;;;;;62.35;58.65;;;;;;;;;;5100879;28;20201;-83
2023/02/02 09:14:51;;;;;;;64.78;60.72;;;;;;;;;;5101418;28;20218;-83
2023/02/02 09:17:18;;;;;;;65.10;61.20;;;;;;;;;;5101363;28;20209;-83
2023/02/02 09:19:45;;;;;;;61.95;57.95;;;;;;;;;;5100992;28;20262;-83
2023/02/02 09:22:13;;;;;;;63.10;59.22;;;;;;;;;;5100811;28;20212;-83
2023/02/02 09:24:40;;;;;;;62.38;58.97;;;;;;;;;;5101264;28;20234;-83
2023/02/02 09:27:07;;;;;;;69.93;65.72;;;;;;;;;;5100928;28;20278;-83
2023/02/02 09:29:34;;;;;;;63.53;59.70;;;;;;;;;;5100886;28;20204;-83
2023/02/02 09:32:01;;;;;;;63.88;59.92;;;;;;;;;;5100120;28;20215;-83
2023/02/02 09:34:28;;;;;;;62.00;58.40;;;;;;;;;;5100842;28;20257;-83
2023/02/02 09:36:55;;;;;;;65.97;61.85;;;;;;;;;;5101017;28;20206;-84
2023/02/02 09:39:23;;;;;;;64.65;60.72;;;;;;;;;;5101444;28;20671;-84
2023/02/02 09:42:07;;;;;;;61.58;57.88;;;;;;;;;;5100807;28;20205;-83
2023/02/02 09:44:45;;;;;;;62.08;57.35;;;;;;;;;;5100857;28;20221;-82
2023/02/02 09:47:16;;;;;;;64.97;60.85;;;;;;;;;;5101319;28;20237;-82
2023/02/02 09:49:47;;;;;;;60.63;56.78;;;;;;;;;;5100473;28;20193;-83
2023/02/02 09:52:16;;;;;;;60.78;56.70;;;;;;;;;;5100890;28;20527;-83
2023/02/02 09:54:46;;;;;;;63.58;59.78;;;;;;;;;;5101047;28;20222;-84
2023/02/02 09:57:16;;;;;;;63.85;59.65;;;;;;;;;;5099771;28;20209;-83
2023/02/02 09:59:43;;;;;;;61.60;58.10;;;;;;;;;;5100802;28;20719;-83
2023/02/02 10:02:16;;;;;;;64.35;60.45;;;;;;;;;;5100320;28;20252;-84
2023/02/02 10:04:45;;;;;;;64.60;60.45;;;;;;;;;;5100901;28;20307;-83
2023/02/02 10:07:14;;;;;;;63.45;59.50;;;;;;;;;;5100482;28;20678;-84
2023/02/02 10:09:43;;;;;;;64.15;60.08;;;;;;;;;;5099773;28;20220;-82
2023/02/02 10:12:17;;;;;;;66.53;62.35;;;;;;;;;;5098776;28;20207;-81
2023/02/02 10:14:48;;;;;;;64.57;60.58;;;;;;;;;;5099240;28;20648;-81
2023/02/02 10:17:26;;;;;;;63.58;59.95;;;;;;;;;;5099817;28;20240;-81
2023/02/02 10:19:55;;;;;;;66.53;62.72;;;;;;;;;;5099396;28;20329;-80
2023/02/02 10:22:24;;;;;;;69.75;65.78;;;;;;;;;;5098617;28;20673;-81
2023/02/02 10:24:51;;;;;;;68.53;64.20;;;;;;;;;;5099320;28;20223;-81
2023/02/02 10:27:23;;;;;;;62.28;58.53;;;;;;;;;;5099578;28;20638;-81
2023/02/02 10:29:54;;;;;;;63.25;59.38;;;;;;;;;;5099227;28;20186;-81
2023/02/02 10:32:24;;;;;;;63.88;60.28;;;;;;;;;;5098990;28;20191;-81
2023/02/02 10:35:00;;;;;;;65.30;60.80;;;;;;;;;;5099250;28;20229;-80
2023/02/02 10:37:30;;;;;;;65.17;61.37;;;;;;;;;;5099171;28;20600;-81
2023/02/02 10:40:03;;;;;;;66.03;62.20;;;;;;;;;;5098591;28;20413;-80
2023/02/02 10:42:36;;;;;;;65.68;61.67;;;;;;;;;;5096609;28;20297;-80
2023/02/02 10:45:05;;;;;;;64.47;60.42;;;;;;;;;;5099091;28;20233;-80
2023/02/02 10:47:33;;;;;;;63.80;60.30;;;;;;;;;;5099030;28;20257;-80
2023/02/02 10:50:03;;;;;;;63.35;59.67;;;;;;;;;;5098524;28;20724;-80
2023/02/02 10:52:32;;;;;;;64.15;60.30;;;;;;;;;;5098203;28;20297;-81
2023/02/02 10:55:02;;;;;;;70.13;65.70;;;;;;;;;;5098797;28;20226;-80
2023/02/02 10:57:34;;;;;;;67.40;63.22;;;;;;;;;;5098857;28;20201;-80
2023/02/02 11:00:05;;;;;;;63.95;60.28;;;;;;;;;;5098515;28;20635;-80
2023/02/02 11:02:32;;;;;;;63.60;60.03;;;;;;;;;;5097948;28;20213;-81
2023/02/02 11:07:44;;;;;;;64.27;60.60;;;;;;;;;;5098222;28;20185;-80
2023/02/02 11:10:11;;;;;;;63.35;59.53;;;;;;;;;;5098963;28;21015;-80
2023/02/02 11:12:44;;;;;;;61.05;57.17;;;;;;;;;;5098156;28;20725;-80
2023/02/02 11:15:24;;;;;;;64.35;60.60;;;;;;;;;;5098453;28;20217;-80
2023/02/02 11:17:51;;;;;;;65.43;61.63;;;;;;;;;;5098211;28;20284;-80
2023/02/02 11:20:22;;;;;;;59.85;56.55;;;;;;;;;;5098465;28;20201;-83
2023/02/02 11:22:59;;;;;;;60.53;56.63;;;;;;;;;;5099339;28;20636;-83
2023/02/02 11:25:28;;;;;;;60.03;56.28;;;;;;;;;;5099907;28;20316;-83
2023/02/02 11:27:56;;;;;;;60.95;56.63;;;;;;;;;;5099807;28;20215;-84
2023/02/02 11:30:28;;;;;;;60.53;56.90;;;;;;;;;;5099485;28;20255;-81
2023/02/02 11:32:55;;;;;;;60.78;56.60;;;;;;;;;;5098973;28;20601;-84
2023/02/02 11:35:22;;;;;;;61.90;57.70;;;;;;;;;;5099806;28;20640;-84
2023/02/02 11:37:54;;;;;;;61.72;57.80;;;;;;;;;;5099557;28;20671;-84
2023/02/02 11:40:27;;;;;;;61.55;57.20;;;;;;;;;;5099580;28;20234;-84
2023/02/02 11:42:55;;;;;;;58.95;55.63;;;;;;;;;;5092657;28;20209;-84
2023/02/02 11:45:29;;;;;;;59.33;55.35;;;;;;;;;;5079007;28;20262;-84
2023/02/02 11:48:01;;;;;;;59.03;55.30;;;;;;;;;;5078452;28;20679;-84
2023/02/02 11:50:28;;;;;;;58.92;54.80;;;;;;;;;;5078847;28;20228;-84
2023/02/02 11:52:56;;;;;;;60.00;56.05;;;;;;;;;;5077344;28;20213;-84
2023/02/02 11:55:25;;;;;;;58.42;54.63;;;;;;;;;;5078317;28;20774;-83
2023/02/02 11:58:10;;;;;;;60.13;56.72;;;;;;;;;;5078655;28;20206;-83
2023/02/02 12:00:46;;;;;;;54.75;51.53;;;;;;;;;;5078693;28;20217;-81
2023/02/02 12:03:22;;;;;;;55.65;52.00;;;;;;;;;;5073603;28;20213;-79
2023/02/02 12:05:50;;;;;;;54.63;51.53;;;;;;;;;;5073456;28;20233;-79
2023/02/02 12:08:17;;;;;;;56.25;52.33;;;;;;;;;;5074334;28;20203;-79
2023/02/02 12:10:47;;;;;;;54.45;50.95;;;;;;;;;;5074276;28;20206;-79
2023/02/02 12:13:18;;;;;;;57.03;53.92;;;;;;;;;;5073716;28;20268;-79
2023/02/02 12:15:52;;;;;;;56.50;53.22;;;;;;;;;;5073218;28;20260;-79
2023/02/02 12:18:27;;;;;;;50.05;47.05;;;;;;;;;;5074312;28;20201;-79
2023/02/02 12:20:57;;;;;;;51.30;48.17;;;;;;;;;;5074776;28;20223;-80
2023/02/02 12:23:38;;;;;;;53.58;49.95;;;;;;;;;;5074995;28;20253;-79
2023/02/02 12:26:14;;;;;;;52.90;49.47;;;;;;;;;;5075446;28;20222;-80
2023/02/02 12:28:49;;;;;;;50.90;47.95;;;;;;;;;;5075355;28;20190;-79
2023/02/02 12:31:25;;;;;;;50.70;47.25;;;;;;;;;;5074190;28;20212;-80
2023/02/02 12:33:54;;;;;;;49.78;46.58;;;;;;;;;;5074292;28;20194;-79
2023/02/02 12:36:30;;;;;;;49.78;46.03;;;;;;;;;;5074593;28;20237;-78
2023/02/02 12:39:05;;;;;;;48.63;45.42;;;;;;;;;;5075053;28;20235;-79
2023/02/02 12:41:38;;;;;;;48.08;44.58;;;;;;;;;;5074689;28;20198;-79
2023/02/02 12:44:10;;;;;;;45.17;42.38;;;;;;;;;;5075734;28;20222;-80
2023/02/02 12:46:43;;;;;;;45.92;43.00;;;;;;;;;;5075157;28;20191;-79
2023/02/02 12:49:19;;;;;;;47.88;44.22;;;;;;;;;;5075690;28;20232;-79
2023/02/02 12:51:51;;;;;;;47.30;44.17;;;;;;;;;;5074407;28;20194;-79
2023/02/02 12:54:24;;;;;;;48.33;45.22;;;;;;;;;;5074223;28;20264;-79
2023/02/02 12:56:55;;;;;;;49.72;46.53;;;;;;;;;;5074492;28;20194;-79
2023/02/02 12:59:28;;;;;;;47.45;44.08;;;;;;;;;;5075193;28;20263;-79
2023/02/02 13:02:04;;;;;;;48.57;44.87;;;;;;;;;;5073841;28;20259;-79
2023/02/02 13:04:37;;;;;;;46.70;43.70;;;;;;;;;;5074170;28;21038;-79
2023/02/02 13:07:13;;;;;;;49.40;46.00;;;;;;;;;;5074639;28;20197;-79
2023/02/02 13:09:46;;;;;;;48.70;45.60;;;;;;;;;;5074277;28;20190;-79
2023/02/02 13:12:14;;;;;;;50.95;47.70;;;;;;;;;;5077849;28;20186;-84
2023/02/02 13:14:42;;;;;;;48.45;45.25;;;;;;;;;;5076703;28;20694;-83
2023/02/02 13:17:13;;;;;;;49.25;46.00;;;;;;;;;;5076817;28;20236;-82
2023/02/02 13:19:41;;;;;;;49.08;45.58;;;;;;;;;;5077643;28;20194;-82
2023/02/02 13:22:11;;;;;;;49.13;45.47;;;;;;;;;;5075751;28;20607;-82
2023/02/02 13:24:41;;;;;;;49.08;46.00;;;;;;;;;;5075512;28;20260;-81
2023/02/02 13:27:11;;;;;;;47.50;44.13;;;;;;;;;;5076293;28;20202;-81
2023/02/02 13:29:39;;;;;;;47.45;44.35;;;;;;;;;;5074848;28;20659;-82
2023/02/02 13:32:11;;;;;;;49.92;46.47;;;;;;;;;;5074408;28;20206;-82
2023/02/02 13:34:43;;;;;;;49.35;45.67;;;;;;;;;;5076564;28;20820;-81
2023/02/02 13:37:13;;;;;;;50.03;46.30;;;;;;;;;;5076466;28;20187;-81
2023/02/02 13:39:42;;;;;;;50.67;47.08;;;;;;;;;;5076494;28;20267;-82
2023/02/02 13:42:15;;;;;;;44.13;41.28;;;;;;;;;;5075501;28;20240;-81
2023/02/02 13:44:45;;;;;;;49.47;46.28;;;;;;;;;;5077899;28;20235;-81
2023/02/02 13:47:16;;;;;;;44.55;41.45;;;;;;;;;;5079722;28;20211;-82
2023/02/02 13:49:49;;;;;;;48.92;44.67;;;;;;;;;;5080751;28;20215;-82
2023/02/02 13:52:25;;;;;;;44.80;41.50;;;;;;;;;;5079460;28;20258;-83
2023/02/02 13:55:15;;;;;;;44.13;40.92;;;;;;;;;;5080586;28;20277;-82
2023/02/02 13:57:51;;;;;;;45.60;42.00;;;;;;;;;;5079728;28;20211;-83
2023/02/02 14:00:20;;;;;;;46.95;43.65;;;;;;;;;;5080135;28;20346;-84
2023/02/02 14:02:48;;;;;;;46.15;42.85;;;;;;;;;;5079738;28;20241;-83
2023/02/02 14:05:28;;;;;;;50.88;46.67;;;;;;;;;;5079907;28;20295;-82
2023/02/02 14:07:59;;;;;;;49.70;46.03;;;;;;;;;;5080054;28;20186;-83
2023/02/02 14:10:30;;;;;;;49.65;45.50;;;;;;;;;;5078751;28;20209;-84
2023/02/02 14:13:07;;;;;;;50.13;46.70;;;;;;;;;;5079532;28;20210;-83
2023/02/02 14:15:38;;;;;;;52.80;48.80;;;;;;;;;;5079722;28;20265;-82
2023/02/02 14:18:05;;;;;;;51.63;48.20;;;;;;;;;;5079319;28;20209;-82
2023/02/02 14:20:45;;;;;;;54.88;51.22;;;;;;;;;;5080297;28;20210;-82
2023/02/02 14:23:33;;;;;;;56.47;51.88;;;;;;;;;;5078371;28;20203;-83
2023/02/02 14:26:07;;;;;;;53.97;49.83;;;;;;;;;;5079275;28;20762;-83
2023/02/02 14:28:42;;;;;;;53.07;49.57;;;;;;;;;;5079078;28;20205;-83
2023/02/02 14:31:33;;;;;;;51.28;47.83;;;;;;;;;;5076944;28;20433;-78
2023/02/02 14:34:15;;;;;;;49.67;46.30;;;;;;;;;;5075535;28;20615;-80
2023/02/02 14:36:52;;;;;;;50.47;46.97;;;;;;;;;;5075356;28;20194;-78
2023/02/02 14:39:22;;;;;;;49.05;45.80;;;;;;;;;;5075776;28;20186;-79
2023/02/02 14:44:56;;;;;;;47.53;44.13;;;;;;;;;;5073240;28;20236;-78